Vorkuta, Russia
Current Conditions -  °F | °C
As of 1:30 PM on Friday 28 Nov 2014 (Local Time) from USHH Reporting Station
Clear Clear  
Wind Chill: -33°   Ceiling: Unl
Heat Index: -20°   Visibility: 6mi
Dew Point: -27°   Wind: 4mph
Humidity: 69%   Direction: 150°SSE
Pressure: 30.5"   Gusts: NA
Location:  67.5°N, 64°E
Report Text: USHH 281030Z 15002MPS CAVOK M29/M33 Q1033 NOSIG RMK QFE77124////60
Loading
Personal Weather Stations






























Interactive Weather Map New forecast layout! Learn more

10-Day Weather Forecast

Advertisements
Track Severe Weather on mobile